UAL30 KEWR-EDDM
Flight info
| Callsign | UAL30 |
|---|---|
| Flight time | N/A |
| Altitude | 35000 |
| Route | MERIT DCT HFD DCT PUT DCT WITCH DCT ALLEX N565B TUDEP/M082F370 NATX GISTI/N0466F390 DCT UNBEG DCT TIPUR DCT BAKUR DCT OKSAW DCT KONAN DCT KOK UL607 FERDI DCT REMBA UL607 MATUG DCT MOVUM T109 HAREM/N0449F350 T104 ELMOX/N0386F270 T104 ROKIL ROKIL1A |
| Aircraft | B772/H-SDE2E3FGHIJ5LORVWXY/LB1D1 |
Departure
| Time | 2026-04-21 21:41 |
|---|---|
| Airport | Newark Liberty International Airport (KEWR) |
Arrival
| Time | N/A |
|---|---|
| Airport | Munich Airport (EDDM) |
| Time | Latitude | Longitude | Altitude | Speed | Heading |
|---|---|---|---|---|---|
| 2026-04-21 21:32 | 40.69760 | -74.18098 | 25 ft | 0 kts | 334° |
| 2026-04-21 21:35 | 40.69783 | -74.18113 | 26 ft | 11 kts | 334° |
| 2026-04-21 21:35 | 40.69897 | -74.18162 | 26 ft | 20 kts | 2° |
| 2026-04-21 21:36 | 40.70044 | -74.18135 | 26 ft | 22 kts | 17° |
| 2026-04-21 21:36 | 40.70156 | -74.18056 | 26 ft | 12 kts | 59° |
| 2026-04-21 21:36 | 40.70162 | -74.17945 | 26 ft | 13 kts | 92° |
| 2026-04-21 21:36 | 40.70153 | -74.17805 | 26 ft | 19 kts | 95° |
| 2026-04-21 21:37 | 40.70139 | -74.17605 | 26 ft | 25 kts | 96° |
| 2026-04-21 21:37 | 40.70124 | -74.17373 | 27 ft | 25 kts | 94° |
| 2026-04-21 21:37 | 40.70110 | -74.17142 | 26 ft | 25 kts | 95° |
| 2026-04-21 21:37 | 40.70095 | -74.16908 | 26 ft | 25 kts | 95° |
| 2026-04-21 21:38 | 40.70078 | -74.16677 | 27 ft | 25 kts | 95° |
| 2026-04-21 21:38 | 40.70069 | -74.16543 | 29 ft | 0 kts | 95° |
| 2026-04-21 21:38 | 40.70068 | -74.16533 | 28 ft | 1 kts | 95° |
| 2026-04-21 21:38 | 40.70067 | -74.16523 | 28 ft | 2 kts | 95° |
| 2026-04-21 21:39 | 40.70066 | -74.16501 | 28 ft | 3 kts | 95° |
| 2026-04-21 21:39 | 40.70066 | -74.16499 | 28 ft | 0 kts | 95° |
| 2026-04-21 21:39 | 40.70064 | -74.16475 | 25 ft | 6 kts | 95° |
| 2026-04-21 21:39 | 40.70053 | -74.16397 | 28 ft | 8 kts | 118° |
| 2026-04-21 21:40 | 40.70013 | -74.16379 | 25 ft | 9 kts | 176° |
| 2026-04-21 21:40 | 40.69870 | -74.16459 | 30 ft | 47 kts | 206° |
| 2026-04-21 21:40 | 40.69345 | -74.16791 | 28 ft | 121 kts | 205° |
| 2026-04-21 21:40 | 40.68396 | -74.17444 | 102 ft | 174 kts | 200° |
| 2026-04-21 21:41 | 40.67305 | -74.18152 | 990 ft | 168 kts | 203° |
| 2026-04-21 21:41 | 40.66280 | -74.18818 | 1961 ft | 171 kts | 205° |
| 2026-04-21 21:41 | 40.65116 | -74.19570 | 2267 ft | 192 kts | 206° |
| 2026-04-21 21:41 | 40.63899 | -74.20335 | 2534 ft | 210 kts | 207° |
| 2026-04-21 21:42 | 40.62697 | -74.21584 | 2783 ft | 229 kts | 236° |
| 2026-04-21 21:42 | 40.62199 | -74.23589 | 3362 ft | 235 kts | 269° |
| 2026-04-21 21:42 | 40.62627 | -74.25784 | 4071 ft | 244 kts | 300° |
| 2026-04-21 21:42 | 40.63544 | -74.27112 | 4573 ft | 252 kts | 323° |
| 2026-04-21 21:43 | 40.65176 | -74.28009 | 5222 ft | 263 kts | 348° |
| 2026-04-21 21:43 | 40.67039 | -74.27840 | 5877 ft | 266 kts | 15° |
| 2026-04-21 21:43 | 40.68664 | -74.26898 | 5976 ft | 276 kts | 25° |
| 2026-04-21 21:43 | 40.70326 | -74.25688 | 5996 ft | 272 kts | 27° |
| 2026-04-21 21:44 | 40.71966 | -74.24440 | 5999 ft | 270 kts | 27° |
| 2026-04-21 21:44 | 40.73576 | -74.23163 | 5992 ft | 269 kts | 34° |
| 2026-04-21 21:44 | 40.74487 | -74.21993 | 5995 ft | 277 kts | 53° |
| 2026-04-21 21:44 | 40.75265 | -74.19638 | 6349 ft | 284 kts | 73° |
| 2026-04-21 21:45 | 40.75694 | -74.17083 | 6918 ft | 289 kts | 76° |
| 2026-04-21 21:45 | 40.76044 | -74.14454 | 7581 ft | 292 kts | 77° |
| 2026-04-21 21:45 | 40.76362 | -74.11781 | 8202 ft | 297 kts | 77° |
| 2026-04-21 21:45 | 40.76656 | -74.09077 | 8744 ft | 300 kts | 77° |
| 2026-04-21 21:46 | 40.76938 | -74.06329 | 9259 ft | 306 kts | 77° |
| 2026-04-21 21:46 | 40.77216 | -74.03506 | 9850 ft | 308 kts | 74° |
| 2026-04-21 21:46 | 40.77962 | -74.00907 | 10257 ft | 300 kts | 46° |
| 2026-04-21 21:46 | 40.79338 | -73.98820 | 10372 ft | 313 kts | 37° |
| 2026-04-21 21:47 | 40.80964 | -73.96789 | 10572 ft | 332 kts | 35° |
| 2026-04-21 21:47 | 40.82677 | -73.94662 | 11025 ft | 345 kts | 37° |
| 2026-04-21 21:47 | 40.84424 | -73.92405 | 11655 ft | 353 kts | 38° |
| 2026-04-21 21:47 | 40.86148 | -73.90082 | 12389 ft | 357 kts | 39° |
| 2026-04-21 21:48 | 40.87867 | -73.87693 | 13155 ft | 360 kts | 39° |
| 2026-04-21 21:48 | 40.89557 | -73.85298 | 13874 ft | 364 kts | 40° |
| 2026-04-21 21:48 | 40.90997 | -73.83231 | 14420 ft | 368 kts | 40° |
| 2026-04-21 21:48 | 40.93084 | -73.80210 | 15201 ft | 371 kts | 40° |
| 2026-04-21 21:49 | 40.94908 | -73.77555 | 15925 ft | 373 kts | 40° |
| 2026-04-21 21:49 | 40.96956 | -73.74566 | 16696 ft | 376 kts | 40° |
| 2026-04-21 21:49 | 40.98657 | -73.72079 | 17328 ft | 379 kts | 40° |
| 2026-04-21 21:49 | 41.00426 | -73.69493 | 17984 ft | 382 kts | 40° |
| 2026-04-21 21:50 | 41.01861 | -73.67391 | 18483 ft | 384 kts | 40° |
| 2026-04-21 21:50 | 41.03508 | -73.64979 | 18979 ft | 387 kts | 39° |
| 2026-04-21 21:50 | 41.05305 | -73.62346 | 19492 ft | 390 kts | 39° |
| 2026-04-21 21:50 | 41.07128 | -73.59671 | 19993 ft | 393 kts | 39° |
| 2026-04-21 21:51 | 41.08901 | -73.57070 | 20485 ft | 396 kts | 39° |
| 2026-04-21 21:51 | 41.10777 | -73.54312 | 20998 ft | 400 kts | 39° |
| 2026-04-21 21:51 | 41.12656 | -73.51548 | 21504 ft | 403 kts | 39° |
| 2026-04-21 21:51 | 41.14547 | -73.48765 | 21973 ft | 407 kts | 39° |
| 2026-04-21 21:52 | 41.16448 | -73.45964 | 22466 ft | 410 kts | 39° |
| 2026-04-21 21:52 | 41.18361 | -73.43141 | 22995 ft | 413 kts | 39° |
| 2026-04-21 21:52 | 41.20292 | -73.40288 | 23509 ft | 416 kts | 39° |
| 2026-04-21 21:52 | 41.22284 | -73.37343 | 23990 ft | 419 kts | 39° |
| 2026-04-21 21:53 | 41.24064 | -73.34709 | 24403 ft | 422 kts | 39° |
| 2026-04-21 21:53 | 41.26044 | -73.31776 | 24851 ft | 424 kts | 39° |
| 2026-04-21 21:53 | 41.28011 | -73.28858 | 25315 ft | 426 kts | 39° |
| 2026-04-21 21:53 | 41.29999 | -73.25907 | 25765 ft | 428 kts | 39° |
| 2026-04-21 21:54 | 41.31991 | -73.22947 | 26187 ft | 430 kts | 39° |
| 2026-04-21 21:54 | 41.33989 | -73.19977 | 26560 ft | 433 kts | 39° |
| 2026-04-21 21:54 | 41.36011 | -73.16970 | 26945 ft | 435 kts | 39° |
| 2026-04-21 21:54 | 41.37980 | -73.13875 | 27318 ft | 442 kts | 44° |
| 2026-04-21 21:55 | 41.39743 | -73.10462 | 27695 ft | 452 kts | 50° |
| 2026-04-21 21:55 | 41.41345 | -73.06843 | 28106 ft | 455 kts | 51° |
| 2026-04-21 21:55 | 41.42933 | -73.03180 | 28474 ft | 457 kts | 51° |
| 2026-04-21 21:55 | 41.44527 | -72.99495 | 28783 ft | 460 kts | 51° |
| 2026-04-21 21:56 | 41.46136 | -72.95794 | 29132 ft | 463 kts | 51° |
| 2026-04-21 21:56 | 41.47763 | -72.92071 | 29478 ft | 464 kts | 51° |
| 2026-04-21 21:56 | 41.49393 | -72.88353 | 29813 ft | 466 kts | 51° |
| 2026-04-21 21:56 | 41.51052 | -72.84574 | 30128 ft | 467 kts | 51° |
| 2026-04-21 21:57 | 41.52679 | -72.80867 | 30419 ft | 469 kts | 51° |
| 2026-04-21 21:57 | 41.54331 | -72.77098 | 30669 ft | 471 kts | 51° |
| 2026-04-21 21:57 | 41.55992 | -72.73305 | 30914 ft | 473 kts | 51° |
| 2026-04-21 21:57 | 41.57654 | -72.69503 | 31140 ft | 475 kts | 51° |
| 2026-04-21 21:58 | 41.59317 | -72.65692 | 31345 ft | 477 kts | 51° |
| 2026-04-21 21:58 | 41.60992 | -72.61850 | 31531 ft | 478 kts | 51° |
| 2026-04-21 21:58 | 41.62669 | -72.57999 | 31729 ft | 479 kts | 51° |
| 2026-04-21 21:58 | 41.64348 | -72.54140 | 31928 ft | 480 kts | 51° |
| 2026-04-21 21:59 | 41.66047 | -72.50308 | 32194 ft | 478 kts | 50° |
| 2026-04-21 21:59 | 41.67764 | -72.46501 | 32490 ft | 477 kts | 50° |
| 2026-04-21 22:00 | 41.68654 | -72.44537 | 32628 ft | 476 kts | 50° |
| 2026-04-21 22:00 | 41.70369 | -72.40755 | 32921 ft | 475 kts | 50° |
| 2026-04-21 22:00 | 41.72084 | -72.36962 | 33208 ft | 474 kts | 50° |
| 2026-04-21 22:00 | 41.73786 | -72.33187 | 33487 ft | 473 kts | 50° |
| 2026-04-21 22:01 | 41.75482 | -72.29413 | 33759 ft | 472 kts | 50° |
| 2026-04-21 22:01 | 41.77155 | -72.25688 | 33883 ft | 475 kts | 51° |
| 2026-04-21 22:01 | 41.78871 | -72.21821 | 34432 ft | 466 kts | 50° |
| 2026-04-21 22:01 | 41.80514 | -72.18136 | 34599 ft | 467 kts | 50° |
| 2026-04-21 22:02 | 41.82182 | -72.14410 | 34667 ft | 470 kts | 50° |
| 2026-04-21 22:02 | 41.83877 | -72.10618 | 34805 ft | 472 kts | 51° |
| 2026-04-21 22:02 | 41.85564 | -72.06833 | 34999 ft | 471 kts | 51° |
| 2026-04-21 22:02 | 41.87240 | -72.03061 | 35176 ft | 471 kts | 51° |
| 2026-04-21 22:03 | 41.88923 | -71.99270 | 35226 ft | 473 kts | 51° |
| 2026-04-21 22:03 | 41.92278 | -71.91694 | 35289 ft | 472 kts | 51° |
| 2026-04-21 22:04 | 41.95880 | -71.84306 | 35291 ft | 463 kts | 43° |
| 2026-04-21 22:04 | 42.00225 | -71.78074 | 35307 ft | 453 kts | 36° |
| 2026-04-21 22:05 | 42.04785 | -71.72209 | 35293 ft | 454 kts | 36° |
| 2026-04-21 22:05 | 42.09338 | -71.66315 | 35296 ft | 455 kts | 36° |
| 2026-04-21 22:06 | 42.13882 | -71.60375 | 35292 ft | 455 kts | 36° |
| 2026-04-21 22:06 | 42.18416 | -71.54414 | 35281 ft | 455 kts | 36° |
| 2026-04-21 22:07 | 42.22954 | -71.48436 | 35296 ft | 456 kts | 36° |
| 2026-04-21 22:07 | 42.27492 | -71.42445 | 35294 ft | 457 kts | 36° |
| 2026-04-21 22:08 | 42.32035 | -71.36437 | 35288 ft | 457 kts | 36° |
| 2026-04-21 22:08 | 42.36556 | -71.30444 | 35292 ft | 458 kts | 37° |
| 2026-04-21 22:09 | 42.41105 | -71.24403 | 35288 ft | 459 kts | 37° |
| 2026-04-21 22:09 | 42.45662 | -71.18336 | 35277 ft | 459 kts | 37° |
| 2026-04-21 22:10 | 42.50224 | -71.12249 | 35293 ft | 460 kts | 37° |
| 2026-04-21 22:10 | 42.54824 | -71.06100 | 35329 ft | 461 kts | 37° |
| 2026-04-21 22:11 | 42.59395 | -70.99975 | 35331 ft | 462 kts | 37° |
| 2026-04-21 22:11 | 42.63969 | -70.93833 | 35324 ft | 464 kts | 37° |
| 2026-04-21 22:12 | 42.68449 | -70.87455 | 35330 ft | 471 kts | 43° |
| 2026-04-21 22:12 | 42.72233 | -70.80003 | 35321 ft | 479 kts | 50° |
| 2026-04-21 22:13 | 42.75815 | -70.72329 | 35320 ft | 481 kts | 50° |
| 2026-04-21 22:13 | 42.79410 | -70.64646 | 35320 ft | 482 kts | 50° |
| 2026-04-21 22:14 | 42.83030 | -70.56961 | 35330 ft | 483 kts | 50° |
| 2026-04-21 22:14 | 42.86079 | -70.50498 | 35331 ft | 484 kts | 50° |
| 2026-04-21 22:15 | 42.89720 | -70.42766 | 35338 ft | 486 kts | 50° |
| 2026-04-21 22:15 | 42.93379 | -70.34973 | 35333 ft | 488 kts | 51° |
| 2026-04-21 22:16 | 42.97039 | -70.27154 | 35340 ft | 490 kts | 51° |
| 2026-04-21 22:16 | 43.00729 | -70.19249 | 35342 ft | 491 kts | 51° |
| 2026-04-21 22:17 | 43.04407 | -70.11348 | 35344 ft | 493 kts | 51° |
| 2026-04-21 22:17 | 43.08088 | -70.03419 | 35345 ft | 494 kts | 52° |
| 2026-04-21 22:18 | 43.11774 | -69.95461 | 35342 ft | 495 kts | 52° |
| 2026-04-21 22:18 | 43.15460 | -69.87477 | 35347 ft | 496 kts | 52° |
| 2026-04-21 22:19 | 43.19150 | -69.79465 | 35345 ft | 497 kts | 52° |
| 2026-04-21 22:19 | 43.22844 | -69.71425 | 35347 ft | 499 kts | 53° |
| 2026-04-21 22:20 | 43.26537 | -69.63362 | 35349 ft | 500 kts | 53° |
| 2026-04-21 22:20 | 43.30239 | -69.55256 | 35348 ft | 501 kts | 53° |
| 2026-04-21 22:21 | 43.33935 | -69.47142 | 35347 ft | 502 kts | 53° |
| 2026-04-21 22:21 | 43.37646 | -69.38974 | 35352 ft | 503 kts | 54° |
| 2026-04-21 22:22 | 43.41367 | -69.30758 | 35351 ft | 504 kts | 54° |
| 2026-04-21 22:22 | 43.45077 | -69.22545 | 35360 ft | 505 kts | 54° |
| 2026-04-21 22:23 | 43.48778 | -69.14329 | 35344 ft | 506 kts | 54° |
| 2026-04-21 22:23 | 43.52490 | -69.06067 | 35351 ft | 507 kts | 54° |
| 2026-04-21 22:24 | 43.56207 | -68.97768 | 35350 ft | 508 kts | 55° |
| 2026-04-21 22:24 | 43.59924 | -68.89446 | 35357 ft | 509 kts | 55° |